createdAt,value
2023-04-12T00:00:38.013Z,97817.47
2023-04-12T00:03:06.332Z,97828.06
2023-04-12T00:05:34.544Z,97823.66
2023-04-12T00:08:05.054Z,97819.88
2023-04-12T00:10:32.029Z,97818.78
2023-04-12T00:12:58.610Z,97833.41
2023-04-12T00:15:25.393Z,97830.16
2023-04-12T00:17:52.035Z,97833.97
2023-04-12T00:20:18.714Z,97843.72
2023-04-12T00:22:45.626Z,97844.03
2023-04-12T00:25:12.296Z,97851.94
2023-04-12T00:27:39.252Z,97853.03
2023-04-12T00:30:08.376Z,97849.25
2023-04-12T00:32:35.272Z,97872.06
2023-04-12T00:35:02.117Z,97862.25
2023-04-12T00:37:28.820Z,97883.09
2023-04-12T00:39:55.594Z,97895.75
2023-04-12T00:42:22.221Z,97894.47
2023-04-12T00:44:48.800Z,97870.94
2023-04-12T00:47:15.739Z,97858.50
2023-04-12T00:49:42.386Z,97851.84
2023-04-12T00:52:10.121Z,97845.22
2023-04-12T00:54:37.406Z,97843.50
2023-04-12T00:57:04.305Z,97837.47
2023-04-12T00:59:31.052Z,97837.38
2023-04-12T01:01:59.875Z,97841.03
2023-04-12T01:04:28.055Z,97846.22
2023-04-12T01:07:15.654Z,97842.06
2023-04-12T01:10:08.290Z,97840.00
2023-04-12T01:12:53.293Z,97832.91
2023-04-12T01:15:21.058Z,97831.00
2023-04-12T01:18:02.676Z,97828.81
2023-04-12T01:20:33.855Z,97828.09
2023-04-12T01:23:22.373Z,97825.94
2023-04-12T01:25:48.938Z,97825.34
2023-04-12T01:28:21.016Z,97816.41
2023-04-12T01:30:50.511Z,97818.72
2023-04-12T01:33:18.890Z,97813.31
2023-04-12T01:35:48.027Z,97813.06
2023-04-12T01:38:14.932Z,97801.94
2023-04-12T01:40:42.763Z,97797.06
2023-04-12T01:43:10.954Z,97799.47
2023-04-12T01:45:38.260Z,97803.34
2023-04-12T01:48:07.748Z,97804.75
2023-04-12T01:51:02.544Z,97804.50
2023-04-12T01:53:39.647Z,97808.53
2023-04-12T01:56:10.172Z,97809.59
2023-04-12T01:58:39.748Z,97799.28
2023-04-12T02:01:08.539Z,97810.94
2023-04-12T02:03:37.559Z,97803.94
2023-04-12T02:06:05.843Z,97794.84
2023-04-12T02:08:33.298Z,97799.78
2023-04-12T02:10:59.882Z,97800.03
2023-04-12T02:13:26.789Z,97796.25
2023-04-12T02:15:55.398Z,97797.34
2023-04-12T02:18:24.408Z,97791.59
2023-04-12T02:20:51.172Z,97780.75
2023-04-12T02:23:17.847Z,97790.78
2023-04-12T02:25:46.736Z,97791.59
2023-04-12T02:28:13.723Z,97783.22
2023-04-12T02:30:41.751Z,97788.34
2023-04-12T02:33:09.620Z,97773.50
2023-04-12T02:35:36.423Z,97769.13
2023-04-12T02:38:08.357Z,97764.03
2023-04-12T02:40:39.632Z,97771.06
2023-04-12T02:43:07.828Z,97767.50
2023-04-12T02:45:34.506Z,97777.03
2023-04-12T02:48:01.232Z,97768.41
2023-04-12T02:50:28.970Z,97768.41
2023-04-12T02:52:55.700Z,97759.09
2023-04-12T02:55:22.350Z,97765.28
2023-04-12T02:57:48.955Z,97763.06
2023-04-12T03:00:16.517Z,97758.41
2023-04-12T03:02:44.059Z,97759.53
2023-04-12T03:05:10.971Z,97761.19
2023-04-12T03:07:37.649Z,97760.41
2023-04-12T03:10:07.712Z,97758.56
2023-04-12T03:12:34.866Z,97761.25
2023-04-12T03:15:01.821Z,97762.88
2023-04-12T03:17:28.429Z,97762.88
2023-04-12T03:19:55.585Z,97761.38
2023-04-12T03:22:23.433Z,97759.53
2023-04-12T03:24:50.088Z,97758.50
2023-04-12T03:27:16.716Z,97760.72
2023-04-12T03:29:43.401Z,97759.94
2023-04-12T03:32:10.065Z,97757.28
2023-04-12T03:34:37.334Z,97757.88
2023-04-12T03:37:04.062Z,97754.56
2023-04-12T03:39:30.723Z,97753.97
2023-04-12T03:41:57.405Z,97754.75
2023-04-12T03:44:26.211Z,97756.88
2023-04-12T03:46:53.088Z,97760.06
2023-04-12T03:49:19.764Z,97753.56
2023-04-12T03:51:46.434Z,97750.84
2023-04-12T03:54:13.483Z,97750.22
2023-04-12T03:56:40.109Z,97745.06
2023-04-12T03:59:10.000Z,97744.00
2023-04-12T04:01:37.063Z,97739.84
2023-04-12T04:04:04.404Z,97734.69
2023-04-12T04:06:31.309Z,97724.66
2023-04-12T04:08:58.213Z,97726.81
2023-04-12T04:11:25.723Z,97721.91
2023-04-12T04:13:52.471Z,97721.41
2023-04-12T04:16:19.238Z,97719.81
2023-04-12T04:18:45.985Z,97712.00
2023-04-12T04:21:14.310Z,97705.25
2023-04-12T04:23:45.155Z,97699.53
2023-04-12T04:26:12.542Z,97690.66
2023-04-12T04:28:45.144Z,97686.31
2023-04-12T04:31:13.235Z,97685.69
2023-04-12T04:33:41.688Z,97694.03
2023-04-12T04:36:09.429Z,97684.19
2023-04-12T04:38:36.740Z,97676.84
2023-04-12T04:41:03.652Z,97668.97
2023-04-12T04:43:31.129Z,97677.03
2023-04-12T04:45:58.411Z,97678.63
2023-04-12T04:48:25.276Z,97669.38
2023-04-12T04:50:52.937Z,97677.75
2023-04-12T04:53:22.153Z,97673.16
2023-04-12T04:55:49.098Z,97674.72
2023-04-12T04:58:16.665Z,97672.06
2023-04-12T05:00:46.328Z,97662.31
2023-04-12T05:03:13.099Z,97665.78
2023-04-12T05:05:40.256Z,97672.50
2023-04-12T05:08:06.884Z,97672.50
2023-04-12T05:10:33.614Z,97670.06
2023-04-12T05:13:00.398Z,97671.66
2023-04-12T05:15:27.006Z,97671.91
2023-04-12T05:17:53.636Z,97668.13
2023-04-12T05:20:20.394Z,97676.25
2023-04-12T05:22:47.142Z,97669.44
2023-04-12T05:25:13.992Z,97667.47
2023-04-12T05:27:40.883Z,97661.78
2023-04-12T05:30:09.173Z,97663.09
2023-04-12T05:32:35.984Z,97663.59
2023-04-12T05:35:02.620Z,97658.69
2023-04-12T05:37:29.211Z,97658.44
2023-04-12T05:39:56.084Z,97650.53
2023-04-12T05:42:22.683Z,97649.94
2023-04-12T05:44:50.907Z,97647.56
2023-04-12T05:47:17.589Z,97651.56
2023-04-12T05:49:44.193Z,97648.44
2023-04-12T05:52:10.781Z,97656.88
2023-04-12T05:54:37.379Z,97659.78
2023-04-12T05:57:04.060Z,97659.31
2023-04-12T05:59:30.975Z,97659.63
2023-04-12T06:01:57.979Z,97660.44
2023-04-12T06:04:34.907Z,97668.06
2023-04-12T06:07:13.489Z,97656.22
2023-04-12T06:09:40.445Z,97653.94
2023-04-12T06:12:07.145Z,97658.38
2023-04-12T06:14:33.804Z,97662.03
2023-04-12T06:17:00.379Z,97660.81
2023-04-12T06:19:27.280Z,97661.72
2023-04-12T06:21:54.223Z,97632.53
2023-04-12T06:24:20.820Z,97626.56
2023-04-12T06:26:47.905Z,97621.75
2023-04-12T06:29:14.663Z,97634.75
2023-04-12T06:31:41.548Z,97632.09
2023-04-12T06:34:08.237Z,97620.13
2023-04-12T06:36:34.973Z,97627.47
2023-04-12T06:39:01.640Z,97613.69
2023-04-12T06:41:28.246Z,97598.41
2023-04-12T06:43:54.884Z,97590.06
2023-04-12T06:46:28.452Z,97590.13
2023-04-12T06:48:55.700Z,97589.06
2023-04-12T06:51:22.411Z,97592.09
2023-04-12T06:53:49.012Z,97578.25
2023-04-12T06:56:18.357Z,97572.03
2023-04-12T06:58:45.798Z,97575.28
2023-04-12T07:01:14.666Z,97564.44
2023-04-12T07:03:41.569Z,97568.84
2023-04-12T07:06:21.925Z,97564.25
2023-04-12T07:08:51.495Z,97569.19
2023-04-12T07:11:20.901Z,97568.09
2023-04-12T07:13:49.152Z,97567.00
2023-04-12T07:16:15.968Z,97567.28
2023-04-12T07:18:42.760Z,97564.59
2023-04-12T07:21:09.423Z,97563.25
2023-04-12T07:23:38.130Z,97560.53
2023-04-12T07:26:05.108Z,97544.56
2023-04-12T07:28:32.429Z,97552.69
2023-04-12T07:30:59.235Z,97549.75
2023-04-12T07:33:26.633Z,97541.34
2023-04-12T07:35:53.622Z,97542.47
2023-04-12T07:38:20.412Z,97535.69
2023-04-12T07:40:49.969Z,97540.03
2023-04-12T07:43:17.021Z,97524.28
2023-04-12T07:45:44.903Z,97519.38
2023-04-12T07:48:13.554Z,97513.69
2023-04-12T07:50:42.108Z,97493.31
2023-04-12T07:53:29.690Z,97502.81
2023-04-12T07:55:56.401Z,97497.38
2023-04-12T07:58:25.478Z,97486.22
2023-04-12T08:00:54.278Z,97480.22
2023-04-12T08:03:21.108Z,97472.66
2023-04-12T08:05:53.314Z,97465.53
2023-04-12T08:08:23.217Z,97453.84
2023-04-12T08:10:51.105Z,97448.16
2023-04-12T08:13:18.082Z,97450.00
2023-04-12T08:15:45.047Z,97440.72
2023-04-12T08:18:12.514Z,97428.50
2023-04-12T08:20:44.123Z,97446.41
2023-04-12T08:23:11.873Z,97437.13
2023-04-12T08:25:39.171Z,97434.13
2023-04-12T08:28:08.156Z,97431.09
2023-04-12T08:30:35.042Z,97423.81
2023-04-12T08:33:01.707Z,97418.94
2023-04-12T08:35:28.473Z,97417.78
2023-04-12T08:37:55.049Z,97416.38
2023-04-12T08:40:21.986Z,97389.09
2023-04-12T08:42:48.791Z,97372.63
2023-04-12T08:45:15.653Z,97353.78
2023-04-12T08:47:44.520Z,97345.28
2023-04-12T08:50:14.273Z,97350.97
2023-04-12T08:52:41.936Z,97340.50
2023-04-12T08:55:10.008Z,97342.09
2023-04-12T08:57:39.780Z,97329.69
2023-04-12T09:00:09.854Z,97324.94
2023-04-12T09:02:38.947Z,97317.34
2023-04-12T09:05:07.912Z,97308.47
2023-04-12T09:07:36.990Z,97305.22
2023-04-12T09:10:04.816Z,97302.97
2023-04-12T09:12:33.369Z,97290.38
2023-04-12T09:15:18.018Z,97290.88
2023-04-12T09:17:44.797Z,97284.31
2023-04-12T09:20:17.669Z,97288.84
2023-04-12T09:22:46.908Z,97268.25
2023-04-12T09:25:16.237Z,97263.41
2023-04-12T09:27:52.915Z,97266.81
2023-04-12T09:30:20.721Z,97263.03
2023-04-12T09:32:51.292Z,97267.22
2023-04-12T09:35:18.748Z,97249.03
2023-04-12T09:37:45.810Z,97238.63
2023-04-12T09:40:12.699Z,97231.03
2023-04-12T09:42:56.138Z,97223.16
2023-04-12T09:45:25.655Z,97210.97
2023-04-12T09:47:54.078Z,97187.00
2023-04-12T09:50:23.055Z,97189.66
2023-04-12T09:52:50.635Z,97184.78
2023-04-12T09:55:17.641Z,97174.53
2023-04-12T09:57:45.538Z,97156.41
2023-04-12T10:00:22.600Z,97156.09
2023-04-12T10:02:52.765Z,97139.59
2023-04-12T10:05:26.262Z,97143.63
2023-04-12T10:07:53.665Z,97134.28
2023-04-12T10:10:21.700Z,97126.25
2023-04-12T10:12:50.446Z,97090.78
2023-04-12T10:15:18.832Z,97113.44
2023-04-12T10:17:49.479Z,97090.59
2023-04-12T10:20:18.164Z,97086.53
2023-04-12T10:22:50.393Z,97092.41
2023-04-12T10:25:19.802Z,97093.69
2023-04-12T10:27:47.474Z,97071.13
2023-04-12T10:30:23.718Z,97080.97
2023-04-12T10:33:10.362Z,97092.38
2023-04-12T10:35:51.920Z,97078.75
2023-04-12T10:38:20.603Z,97078.34
2023-04-12T10:41:15.072Z,97084.59
2023-04-12T10:43:47.893Z,97063.41
2023-04-12T10:46:40.384Z,97081.56
2023-04-12T10:49:12.173Z,97080.94
2023-04-12T10:51:39.043Z,97083.47
2023-04-12T10:54:08.541Z,97070.50
2023-04-12T10:56:39.508Z,97057.50
2023-04-12T10:59:09.931Z,97048.44
2023-04-12T11:01:38.978Z,97039.13
2023-04-12T11:04:13.536Z,97036.47
2023-04-12T11:06:55.444Z,97048.97
2023-04-12T11:09:25.593Z,97044.03
2023-04-12T11:12:10.962Z,97046.03
2023-04-12T11:14:49.920Z,97034.34
2023-04-12T11:17:16.877Z,97044.19
2023-04-12T11:19:45.562Z,97006.59
2023-04-12T11:22:14.298Z,97006.72
2023-04-12T11:24:44.033Z,96995.69
2023-04-12T11:27:11.005Z,96990.72
2023-04-12T11:29:37.840Z,97006.31
2023-04-12T11:32:06.141Z,96992.19
2023-04-12T11:34:37.112Z,96975.28
2023-04-12T11:37:08.185Z,96964.28
2023-04-12T11:39:39.754Z,96950.44
2023-04-12T11:42:08.760Z,96945.44
2023-04-12T11:44:52.396Z,96939.31
2023-04-12T11:47:24.376Z,96938.03
2023-04-12T11:49:56.476Z,96928.47
2023-04-12T11:52:30.343Z,96935.63
2023-04-12T11:55:00.784Z,96922.31
2023-04-12T11:57:29.005Z,96922.38
2023-04-12T11:59:59.355Z,96914.28
2023-04-12T12:02:30.262Z,96909.75
2023-04-12T12:05:00.142Z,96896.56
2023-04-12T12:07:28.399Z,96901.41
2023-04-12T12:09:58.029Z,96899.97
2023-04-12T12:12:26.587Z,96889.78
2023-04-12T12:14:54.504Z,96875.63
2023-04-12T12:17:21.300Z,96871.28
2023-04-12T12:19:49.146Z,96867.06
2023-04-12T12:22:15.793Z,96858.16
2023-04-12T12:24:47.380Z,96857.28
2023-04-12T12:27:18.398Z,96848.19
2023-04-12T12:29:56.060Z,96824.06
2023-04-12T12:32:27.846Z,96832.34
2023-04-12T12:34:57.635Z,96835.88
2023-04-12T12:37:30.577Z,96831.72
2023-04-12T12:40:16.022Z,96836.13
2023-04-12T12:42:55.647Z,96828.00
2023-04-12T12:45:28.293Z,96826.03
2023-04-12T12:47:59.791Z,96821.50
2023-04-12T12:50:29.302Z,96811.31
2023-04-12T12:52:59.090Z,96826.09
2023-04-12T12:55:27.899Z,96815.06
2023-04-12T12:58:07.295Z,96822.22
2023-04-12T13:00:37.477Z,96814.66
2023-04-12T13:03:05.820Z,96796.84
2023-04-12T13:05:33.737Z,96812.16
2023-04-12T13:08:01.169Z,96809.69
2023-04-12T13:10:29.338Z,96806.81
2023-04-12T13:12:57.256Z,96812.09
2023-04-12T13:15:25.240Z,96810.94
2023-04-12T13:17:54.020Z,96802.97
2023-04-12T13:20:25.035Z,96803.13
2023-04-12T13:22:52.790Z,96810.34
2023-04-12T13:25:21.137Z,96817.63
2023-04-12T13:27:50.342Z,96820.28
2023-04-12T13:30:19.747Z,96820.56
2023-04-12T13:32:48.238Z,96822.47
2023-04-12T13:35:15.809Z,96806.22
2023-04-12T13:37:44.124Z,96808.16
2023-04-12T13:40:12.414Z,96814.19
2023-04-12T13:42:41.067Z,96812.53
2023-04-12T13:45:12.257Z,96810.13
2023-04-12T13:47:39.414Z,96818.97
2023-04-12T13:50:06.863Z,96824.19
2023-04-12T13:52:33.519Z,96812.56
2023-04-12T13:55:00.257Z,96810.41
2023-04-12T13:57:26.875Z,96812.31
2023-04-12T13:59:53.510Z,96797.59
2023-04-12T14:02:20.256Z,96795.56
2023-04-12T14:04:52.739Z,96787.00
2023-04-12T14:07:20.179Z,96787.53
2023-04-12T14:09:48.535Z,96794.81
2023-04-12T14:12:15.541Z,96799.34
2023-04-12T14:14:42.416Z,96784.59
2023-04-12T14:17:09.260Z,96785.81
2023-04-12T14:19:36.221Z,96771.97
2023-04-12T14:22:02.846Z,96772.75
2023-04-12T14:24:29.487Z,96775.47
2023-04-12T14:26:57.207Z,96782.03
2023-04-12T14:29:23.892Z,96785.75
2023-04-12T14:31:50.726Z,96774.41
2023-04-12T14:34:17.340Z,96780.41
2023-04-12T14:36:45.319Z,96789.09
2023-04-12T14:39:14.202Z,96802.97
2023-04-12T14:41:43.793Z,96796.78
2023-04-12T14:44:10.567Z,96797.00
2023-04-12T14:46:37.172Z,96804.03
2023-04-12T14:49:05.190Z,96806.19
2023-04-12T14:51:32.250Z,96818.97
2023-04-12T14:53:59.178Z,96809.69
2023-04-12T14:56:28.647Z,96806.16
2023-04-12T14:58:57.228Z,96807.75
2023-04-12T15:01:25.319Z,96813.78
2023-04-12T15:03:53.609Z,96813.72
2023-04-12T15:06:23.158Z,96815.25
2023-04-12T15:08:54.946Z,96812.91
2023-04-12T15:11:26.735Z,96816.50
2023-04-12T15:13:53.879Z,96813.41
2023-04-12T15:16:20.910Z,96817.00
2023-04-12T15:18:47.831Z,96816.03
2023-04-12T15:21:14.571Z,96818.50
2023-04-12T15:23:41.773Z,96814.25
2023-04-12T15:26:12.115Z,96820.47
2023-04-12T15:28:38.991Z,96824.25
2023-04-12T15:31:06.517Z,96842.44
2023-04-12T15:33:34.907Z,96825.19
2023-04-12T15:36:02.757Z,96837.50
2023-04-12T15:38:30.061Z,96819.69
2023-04-12T15:41:01.660Z,96832.50
2023-04-12T15:43:28.572Z,96838.50
2023-04-12T15:45:55.338Z,96845.50
2023-04-12T15:48:23.916Z,96842.94
2023-04-12T15:50:52.142Z,96846.28
2023-04-12T15:53:21.415Z,96852.78
2023-04-12T15:55:48.838Z,96843.06
2023-04-12T15:58:15.556Z,96845.28
2023-04-12T16:00:42.527Z,96850.47
2023-04-12T16:03:09.782Z,96848.09
2023-04-12T16:05:36.847Z,96864.00
2023-04-12T16:08:04.309Z,96853.38
2023-04-12T16:10:31.049Z,96857.41
2023-04-12T16:12:57.935Z,96866.53
2023-04-12T16:15:25.038Z,96858.13
2023-04-12T16:17:54.384Z,96862.44
2023-04-12T16:20:22.255Z,96873.41
2023-04-12T16:22:55.935Z,96872.38
2023-04-12T16:25:24.701Z,96876.78
2023-04-12T16:27:52.039Z,96881.00
2023-04-12T16:30:18.837Z,96883.59
2023-04-12T16:32:50.589Z,96883.78
2023-04-12T16:35:17.549Z,96891.66
2023-04-12T16:37:45.919Z,96881.19
2023-04-12T16:40:13.040Z,96883.59
2023-04-12T16:42:45.469Z,96879.19
2023-04-12T16:45:14.562Z,96883.25
2023-04-12T16:47:41.631Z,96877.16
2023-04-12T16:50:09.381Z,96882.88
2023-04-12T16:52:36.873Z,96892.13
2023-04-12T16:55:04.739Z,96889.06
2023-04-12T16:57:31.578Z,96883.00
2023-04-12T16:59:58.440Z,96899.06
2023-04-12T17:02:26.036Z,96915.16
2023-04-12T17:04:53.106Z,96917.13
2023-04-12T17:07:19.938Z,96919.75
2023-04-12T17:09:46.732Z,96917.19
2023-04-12T17:12:13.435Z,96926.94
2023-04-12T17:14:40.161Z,96931.06
2023-04-12T17:17:07.050Z,96933.84
2023-04-12T17:19:33.977Z,96939.09
2023-04-12T17:22:00.757Z,96936.13
2023-04-12T17:24:28.695Z,96935.00
2023-04-12T17:26:55.613Z,96936.16
2023-04-12T17:29:22.601Z,96944.94
2023-04-12T17:31:51.801Z,96948.97
2023-04-12T17:34:20.924Z,96947.88
2023-04-12T17:36:49.229Z,96961.69
2023-04-12T17:39:16.363Z,96957.78
2023-04-12T17:41:43.328Z,96964.22
2023-04-12T17:44:10.200Z,96972.47
2023-04-12T17:46:37.387Z,96975.59
2023-04-12T17:49:05.883Z,96989.09
2023-04-12T17:51:33.329Z,96991.13
2023-04-12T17:54:00.827Z,96996.88
2023-04-12T17:56:28.058Z,97000.19
2023-04-12T17:58:58.135Z,97005.19
2023-04-12T18:01:31.856Z,97006.00
2023-04-12T18:04:02.932Z,97018.91
2023-04-12T18:06:32.288Z,97020.84
2023-04-12T18:09:05.943Z,97033.13
2023-04-12T18:11:39.795Z,97040.28
2023-04-12T18:14:11.338Z,97038.94
2023-04-12T18:16:40.932Z,97042.19
2023-04-12T18:19:08.332Z,97052.88
2023-04-12T18:21:35.528Z,97051.19
2023-04-12T18:24:05.158Z,97063.78
2023-04-12T18:26:32.673Z,97066.13
2023-04-12T18:29:00.822Z,97070.53
2023-04-12T18:31:28.365Z,97071.56
2023-04-12T18:33:57.327Z,97076.22
2023-04-12T18:36:27.741Z,97083.66
2023-04-12T18:38:54.365Z,97090.47
2023-04-12T18:41:22.425Z,97096.72
2023-04-12T18:43:49.643Z,97100.25
2023-04-12T18:46:17.747Z,97113.69
2023-04-12T18:48:52.134Z,97118.81
2023-04-12T18:51:19.650Z,97115.56
2023-04-12T18:53:49.869Z,97118.66
2023-04-12T18:56:23.122Z,97129.56
2023-04-12T18:58:56.369Z,97131.78
2023-04-12T19:01:25.281Z,97139.41
2023-04-12T19:03:52.608Z,97147.28
2023-04-12T19:06:19.906Z,97160.84
2023-04-12T19:08:49.923Z,97168.19
2023-04-12T19:11:17.724Z,97179.66
2023-04-12T19:13:46.355Z,97192.47
2023-04-12T19:16:14.574Z,97209.69
2023-04-12T19:18:42.172Z,97217.84
2023-04-12T19:21:10.982Z,97219.59
2023-04-12T19:23:39.624Z,97224.03
2023-04-12T19:26:09.653Z,97234.38
2023-04-12T19:28:36.782Z,97238.44
2023-04-12T19:31:17.490Z,97241.47
2023-04-12T19:33:45.684Z,97257.78
2023-04-12T19:36:15.469Z,97260.09
2023-04-12T19:38:44.466Z,97261.22
2023-04-12T19:41:18.627Z,97265.41
2023-04-12T19:43:47.897Z,97276.56
2023-04-12T19:46:14.973Z,97288.84
2023-04-12T19:48:41.749Z,97285.06
2023-04-12T19:51:09.371Z,97298.97
2023-04-12T19:53:37.705Z,97295.47
2023-04-12T19:56:05.162Z,97309.97
2023-04-12T19:58:33.208Z,97312.72
2023-04-12T20:01:04.531Z,97317.03
2023-04-12T20:03:31.721Z,97323.59
2023-04-12T20:05:59.279Z,97324.09
2023-04-12T20:08:28.695Z,97326.31
2023-04-12T20:10:56.185Z,97337.19
2023-04-12T20:13:24.784Z,97341.53
2023-04-12T20:15:52.951Z,97347.50
2023-04-12T20:18:20.290Z,97359.75
2023-04-12T20:20:52.105Z,97359.47
2023-04-12T20:23:19.725Z,97366.53
2023-04-12T20:25:49.012Z,97361.66
2023-04-12T20:28:17.315Z,97370.91
2023-04-12T20:30:46.164Z,97379.41
2023-04-12T20:33:13.407Z,97387.53
2023-04-12T20:35:41.226Z,97397.59
2023-04-12T20:38:08.774Z,97394.34
2023-04-12T20:40:37.702Z,97399.78
2023-04-12T20:43:08.028Z,97406.84
2023-04-12T20:45:34.820Z,97409.84
2023-04-12T20:48:01.550Z,97417.22
2023-04-12T20:50:30.492Z,97420.78
2023-04-12T20:52:57.980Z,97426.75
2023-04-12T20:55:33.678Z,97425.91
2023-04-12T20:58:01.155Z,97427.00
2023-04-12T21:00:29.537Z,97427.25
2023-04-12T21:03:00.103Z,97450.66
2023-04-12T21:05:27.335Z,97443.31
2023-04-12T21:07:54.713Z,97460.16
2023-04-12T21:10:22.330Z,97460.94
2023-04-12T21:12:50.078Z,97476.44
2023-04-12T21:15:21.845Z,97469.94
2023-04-12T21:17:50.737Z,97477.50
2023-04-12T21:20:17.535Z,97484.59
2023-04-12T21:22:47.652Z,97495.16
2023-04-12T21:25:16.518Z,97501.41
2023-04-12T21:27:45.135Z,97493.81
2023-04-12T21:30:12.701Z,97493.78
2023-04-12T21:32:41.043Z,97501.94
2023-04-12T21:35:08.694Z,97508.69
2023-04-12T21:37:36.842Z,97513.91
2023-04-12T21:40:13.571Z,97529.13
2023-04-12T21:42:41.284Z,97524.47
2023-04-12T21:45:09.532Z,97529.91
2023-04-12T21:47:36.858Z,97536.69
2023-04-12T21:50:04.446Z,97532.63
2023-04-12T21:52:31.075Z,97537.50
2023-04-12T21:54:57.643Z,97535.06
2023-04-12T21:57:24.281Z,97538.00
2023-04-12T21:59:51.067Z,97551.84
2023-04-12T22:02:17.696Z,97544.00
2023-04-12T22:04:44.313Z,97556.22
2023-04-12T22:07:13.075Z,97550.50
2023-04-12T22:09:40.317Z,97561.66
2023-04-12T22:12:07.643Z,97575.78
2023-04-12T22:14:34.998Z,97570.06
2023-04-12T22:17:02.369Z,97581.25
2023-04-12T22:19:28.996Z,97584.50
2023-04-12T22:21:55.650Z,97591.59
2023-04-12T22:24:23.383Z,97607.91
2023-04-12T22:26:50.019Z,97609.00
2023-04-12T22:29:17.636Z,97616.91
2023-04-12T22:31:45.535Z,97613.34
2023-04-12T22:34:12.124Z,97610.09
2023-04-12T22:36:42.253Z,97613.59
2023-04-12T22:39:15.573Z,97608.16
2023-04-12T22:41:42.330Z,97623.13
2023-04-12T22:44:09.265Z,97621.22
2023-04-12T22:46:39.206Z,97635.63
2023-04-12T22:49:05.990Z,97629.66
2023-04-12T22:51:32.750Z,97634.53
2023-04-12T22:53:59.723Z,97634.53
2023-04-12T22:56:27.126Z,97632.09
2023-04-12T22:58:53.867Z,97633.72
2023-04-12T23:01:21.561Z,97644.91
2023-04-12T23:03:48.248Z,97645.72
2023-04-12T23:06:14.890Z,97653.03
2023-04-12T23:08:43.521Z,97667.19
2023-04-12T23:11:11.137Z,97667.75
2023-04-12T23:13:37.925Z,97679.16
2023-04-12T23:16:05.700Z,97677.53
2023-04-12T23:18:32.910Z,97693.06
2023-04-12T23:21:01.595Z,97689.53
2023-04-12T23:23:28.425Z,97691.44
2023-04-12T23:25:55.490Z,97690.59
2023-04-12T23:28:24.309Z,97682.72
2023-04-12T23:30:51.665Z,97675.09
2023-04-12T23:33:20.308Z,97688.97
2023-04-12T23:35:52.922Z,97693.59
2023-04-12T23:38:24.575Z,97696.31
2023-04-12T23:40:54.015Z,97690.34
2023-04-12T23:43:21.914Z,97686.53
2023-04-12T23:45:49.183Z,97703.13
2023-04-12T23:48:16.598Z,97697.94
2023-04-12T23:50:45.782Z,97713.44
2023-04-12T23:53:13.123Z,97707.47
2023-04-12T23:55:41.586Z,97706.91
2023-04-12T23:58:08.385Z,97705.28
